sensor_id;sensor_type;location;lat;lon;timestamp;P1;durP1;ratioP1;P2;durP2;ratioP2
7605;SDS011;3844;53.360;9.738;2023-06-10T00:00:23;10.15;;;3.45;;
7605;SDS011;3844;53.360;9.738;2023-06-10T00:02:23;9.75;;;3.47;;
7605;SDS011;3844;53.360;9.738;2023-06-10T00:04:26;11.88;;;3.80;;
7605;SDS011;3844;53.360;9.738;2023-06-10T00:06:27;9.65;;;3.58;;
7605;SDS011;3844;53.360;9.738;2023-06-10T00:08:28;9.32;;;3.60;;
7605;SDS011;3844;53.360;9.738;2023-06-10T00:10:31;9.43;;;3.75;;
7605;SDS011;3844;53.360;9.738;2023-06-10T00:12:32;9.93;;;3.70;;
7605;SDS011;3844;53.360;9.738;2023-06-10T00:14:37;9.48;;;3.53;;
7605;SDS011;3844;53.360;9.738;2023-06-10T00:16:39;10.43;;;3.40;;
7605;SDS011;3844;53.360;9.738;2023-06-10T00:18:40;8.85;;;3.42;;
7605;SDS011;3844;53.360;9.738;2023-06-10T00:20:41;10.73;;;3.33;;
7605;SDS011;3844;53.360;9.738;2023-06-10T00:22:42;9.60;;;3.63;;
7605;SDS011;3844;53.360;9.738;2023-06-10T00:24:46;11.65;;;4.13;;
7605;SDS011;3844;53.360;9.738;2023-06-10T00:26:47;10.13;;;4.00;;
7605;SDS011;3844;53.360;9.738;2023-06-10T00:28:48;10.65;;;4.18;;
7605;SDS011;3844;53.360;9.738;2023-06-10T00:30:49;12.38;;;4.15;;
7605;SDS011;3844;53.360;9.738;2023-06-10T00:32:50;10.23;;;3.85;;
7605;SDS011;3844;53.360;9.738;2023-06-10T00:34:51;12.02;;;4.03;;
7605;SDS011;3844;53.360;9.738;2023-06-10T00:36:51;11.50;;;3.97;;
7605;SDS011;3844;53.360;9.738;2023-06-10T00:38:52;10.88;;;4.10;;
7605;SDS011;3844;53.360;9.738;2023-06-10T00:40:53;12.38;;;4.00;;
7605;SDS011;3844;53.360;9.738;2023-06-10T00:42:53;11.77;;;4.45;;
7605;SDS011;3844;53.360;9.738;2023-06-10T00:44:54;9.65;;;3.97;;
7605;SDS011;3844;53.360;9.738;2023-06-10T00:46:55;9.73;;;4.00;;
7605;SDS011;3844;53.360;9.738;2023-06-10T00:48:56;9.88;;;4.13;;
7605;SDS011;3844;53.360;9.738;2023-06-10T00:50:57;14.45;;;4.75;;
7605;SDS011;3844;53.360;9.738;2023-06-10T00:52:59;10.57;;;4.10;;
7605;SDS011;3844;53.360;9.738;2023-06-10T00:55:01;11.35;;;4.05;;
7605;SDS011;3844;53.360;9.738;2023-06-10T00:57:02;10.93;;;4.40;;
7605;SDS011;3844;53.360;9.738;2023-06-10T00:59:04;11.00;;;3.85;;
7605;SDS011;3844;53.360;9.738;2023-06-10T01:01:04;10.25;;;3.88;;
7605;SDS011;3844;53.360;9.738;2023-06-10T01:03:05;11.80;;;4.40;;
7605;SDS011;3844;53.360;9.738;2023-06-10T01:05:08;12.27;;;4.13;;
7605;SDS011;3844;53.360;9.738;2023-06-10T01:07:11;11.73;;;4.60;;
7605;SDS011;3844;53.360;9.738;2023-06-10T01:11:46;12.75;;;4.30;;
7605;SDS011;3844;53.360;9.738;2023-06-10T01:13:53;10.07;;;4.18;;
7605;SDS011;3844;53.360;9.738;2023-06-10T01:15:56;10.38;;;3.88;;
7605;SDS011;3844;53.360;9.738;2023-06-10T01:17:58;11.68;;;4.50;;
7605;SDS011;3844;53.360;9.738;2023-06-10T01:20:09;10.75;;;4.00;;
7605;SDS011;3844;53.360;9.738;2023-06-10T01:22:12;11.53;;;3.80;;
7605;SDS011;3844;53.360;9.738;2023-06-10T01:24:16;10.13;;;3.85;;
7605;SDS011;3844;53.360;9.738;2023-06-10T01:26:18;8.30;;;3.70;;
7605;SDS011;3844;53.360;9.738;2023-06-10T01:28:31;11.60;;;3.90;;
7605;SDS011;3844;53.360;9.738;2023-06-10T01:31:05;11.35;;;3.50;;
7605;SDS011;3844;53.360;9.738;2023-06-10T01:33:11;10.00;;;3.97;;
7605;SDS011;3844;53.360;9.738;2023-06-10T01:35:14;8.75;;;3.58;;
7605;SDS011;3844;53.360;9.738;2023-06-10T01:37:19;12.40;;;4.40;;
7605;SDS011;3844;53.360;9.738;2023-06-10T01:39:22;11.18;;;4.00;;
7605;SDS011;3844;53.360;9.738;2023-06-10T01:41:25;11.10;;;4.28;;
7605;SDS011;3844;53.360;9.738;2023-06-10T01:43:26;11.85;;;4.22;;
7605;SDS011;3844;53.360;9.738;2023-06-10T01:45:27;12.40;;;4.28;;
7605;SDS011;3844;53.360;9.738;2023-06-10T01:47:27;11.35;;;3.85;;
7605;SDS011;3844;53.360;9.738;2023-06-10T01:49:28;11.93;;;4.40;;
7605;SDS011;3844;53.360;9.738;2023-06-10T01:51:29;11.77;;;4.30;;
7605;SDS011;3844;53.360;9.738;2023-06-10T01:53:31;10.88;;;4.10;;
7605;SDS011;3844;53.360;9.738;2023-06-10T01:55:32;14.25;;;4.28;;
7605;SDS011;3844;53.360;9.738;2023-06-10T01:57:33;9.45;;;4.13;;
7605;SDS011;3844;53.360;9.738;2023-06-10T01:59:33;11.50;;;3.83;;
7605;SDS011;3844;53.360;9.738;2023-06-10T02:01:34;8.90;;;4.18;;
7605;SDS011;3844;53.360;9.738;2023-06-10T02:03:35;9.77;;;3.90;;
7605;SDS011;3844;53.360;9.738;2023-06-10T02:05:35;8.35;;;3.65;;
7605;SDS011;3844;53.360;9.738;2023-06-10T02:07:36;13.20;;;4.13;;
7605;SDS011;3844;53.360;9.738;2023-06-10T02:09:38;11.95;;;3.80;;
7605;SDS011;3844;53.360;9.738;2023-06-10T02:11:38;13.88;;;4.03;;
7605;SDS011;3844;53.360;9.738;2023-06-10T02:13:40;10.38;;;3.85;;
7605;SDS011;3844;53.360;9.738;2023-06-10T02:15:40;9.32;;;3.30;;
7605;SDS011;3844;53.360;9.738;2023-06-10T02:17:41;11.15;;;3.55;;
7605;SDS011;3844;53.360;9.738;2023-06-10T02:19:42;10.50;;;3.47;;
7605;SDS011;3844;53.360;9.738;2023-06-10T02:21:43;10.30;;;3.80;;
7605;SDS011;3844;53.360;9.738;2023-06-10T02:23:43;8.68;;;3.60;;
7605;SDS011;3844;53.360;9.738;2023-06-10T02:25:44;11.38;;;3.40;;
7605;SDS011;3844;53.360;9.738;2023-06-10T02:27:45;9.82;;;3.40;;
7605;SDS011;3844;53.360;9.738;2023-06-10T02:29:46;10.50;;;3.50;;
7605;SDS011;3844;53.360;9.738;2023-06-10T02:31:46;9.63;;;3.42;;
7605;SDS011;3844;53.360;9.738;2023-06-10T02:33:47;10.02;;;3.38;;
7605;SDS011;3844;53.360;9.738;2023-06-10T02:35:48;9.10;;;3.22;;
7605;SDS011;3844;53.360;9.738;2023-06-10T02:37:49;9.75;;;3.45;;
7605;SDS011;3844;53.360;9.738;2023-06-10T02:39:50;10.95;;;3.28;;
7605;SDS011;3844;53.360;9.738;2023-06-10T02:41:51;11.43;;;3.65;;
7605;SDS011;3844;53.360;9.738;2023-06-10T02:43:52;9.15;;;3.15;;
7605;SDS011;3844;53.360;9.738;2023-06-10T02:45:52;10.00;;;3.33;;
7605;SDS011;3844;53.360;9.738;2023-06-10T02:47:53;12.30;;;3.90;;
7605;SDS011;3844;53.360;9.738;2023-06-10T02:49:54;13.23;;;3.45;;
7605;SDS011;3844;53.360;9.738;2023-06-10T02:51:55;11.18;;;3.22;;
7605;SDS011;3844;53.360;9.738;2023-06-10T02:53:56;9.43;;;3.17;;
7605;SDS011;3844;53.360;9.738;2023-06-10T02:55:57;9.18;;;3.05;;
7605;SDS011;3844;53.360;9.738;2023-06-10T02:57:58;10.90;;;3.42;;
7605;SDS011;3844;53.360;9.738;2023-06-10T03:00:00;10.10;;;3.28;;
7605;SDS011;3844;53.360;9.738;2023-06-10T03:02:02;7.45;;;2.92;;
7605;SDS011;3844;53.360;9.738;2023-06-10T03:04:04;10.55;;;3.20;;
7605;SDS011;3844;53.360;9.738;2023-06-10T03:06:05;11.13;;;3.35;;
7605;SDS011;3844;53.360;9.738;2023-06-10T03:08:06;8.10;;;3.00;;
7605;SDS011;3844;53.360;9.738;2023-06-10T03:10:07;8.00;;;2.92;;
7605;SDS011;3844;53.360;9.738;2023-06-10T03:12:08;6.72;;;2.83;;
7605;SDS011;3844;53.360;9.738;2023-06-10T03:14:10;7.68;;;3.00;;
7605;SDS011;3844;53.360;9.738;2023-06-10T03:16:11;9.15;;;3.30;;
7605;SDS011;3844;53.360;9.738;2023-06-10T03:18:12;11.27;;;3.30;;
7605;SDS011;3844;53.360;9.738;2023-06-10T03:20:13;8.93;;;2.90;;
7605;SDS011;3844;53.360;9.738;2023-06-10T03:22:16;10.43;;;3.03;;
7605;SDS011;3844;53.360;9.738;2023-06-10T03:24:17;10.18;;;3.10;;
7605;SDS011;3844;53.360;9.738;2023-06-10T03:26:18;8.68;;;3.00;;
7605;SDS011;3844;53.360;9.738;2023-06-10T03:30:22;9.32;;;2.95;;
7605;SDS011;3844;53.360;9.738;2023-06-10T03:32:22;10.38;;;2.78;;
7605;SDS011;3844;53.360;9.738;2023-06-10T03:34:23;9.32;;;3.10;;
7605;SDS011;3844;53.360;9.738;2023-06-10T03:36:24;8.65;;;2.95;;
7605;SDS011;3844;53.360;9.738;2023-06-10T03:38:29;11.15;;;2.95;;
7605;SDS011;3844;53.360;9.738;2023-06-10T03:40:29;8.80;;;2.63;;
7605;SDS011;3844;53.360;9.738;2023-06-10T03:42:31;9.30;;;2.95;;
7605;SDS011;3844;53.360;9.738;2023-06-10T03:44:32;9.90;;;2.72;;
7605;SDS011;3844;53.360;9.738;2023-06-10T03:46:33;9.20;;;2.75;;
7605;SDS011;3844;53.360;9.738;2023-06-10T03:48:34;10.57;;;3.08;;
7605;SDS011;3844;53.360;9.738;2023-06-10T03:50:35;10.25;;;2.70;;
7605;SDS011;3844;53.360;9.738;2023-06-10T03:52:37;8.45;;;2.58;;
7605;SDS011;3844;53.360;9.738;2023-06-10T03:54:39;9.48;;;2.55;;
7605;SDS011;3844;53.360;9.738;2023-06-10T03:56:40;10.98;;;2.75;;
7605;SDS011;3844;53.360;9.738;2023-06-10T03:58:40;8.52;;;2.60;;
7605;SDS011;3844;53.360;9.738;2023-06-10T04:00:41;9.13;;;2.55;;
7605;SDS011;3844;53.360;9.738;2023-06-10T04:02:42;11.43;;;3.03;;
7605;SDS011;3844;53.360;9.738;2023-06-10T04:04:48;8.70;;;2.45;;
7605;SDS011;3844;53.360;9.738;2023-06-10T04:06:49;10.57;;;2.63;;
7605;SDS011;3844;53.360;9.738;2023-06-10T04:08:50;7.78;;;2.65;;
7605;SDS011;3844;53.360;9.738;2023-06-10T04:10:51;9.57;;;2.58;;
7605;SDS011;3844;53.360;9.738;2023-06-10T04:12:52;6.20;;;2.47;;
7605;SDS011;3844;53.360;9.738;2023-06-10T04:14:52;11.77;;;2.88;;
7605;SDS011;3844;53.360;9.738;2023-06-10T04:16:53;9.95;;;2.80;;
7605;SDS011;3844;53.360;9.738;2023-06-10T04:18:54;12.65;;;3.05;;
7605;SDS011;3844;53.360;9.738;2023-06-10T04:20:55;7.78;;;2.58;;
7605;SDS011;3844;53.360;9.738;2023-06-10T04:22:57;10.13;;;2.38;;
7605;SDS011;3844;53.360;9.738;2023-06-10T04:24:57;11.35;;;2.60;;
7605;SDS011;3844;53.360;9.738;2023-06-10T04:26:59;11.38;;;2.55;;
7605;SDS011;3844;53.360;9.738;2023-06-10T04:29:00;9.95;;;2.72;;
7605;SDS011;3844;53.360;9.738;2023-06-10T04:31:01;9.52;;;2.35;;
7605;SDS011;3844;53.360;9.738;2023-06-10T04:33:04;10.15;;;2.70;;
7605;SDS011;3844;53.360;9.738;2023-06-10T04:35:07;10.98;;;2.67;;
7605;SDS011;3844;53.360;9.738;2023-06-10T04:37:08;11.73;;;2.78;;
7605;SDS011;3844;53.360;9.738;2023-06-10T04:39:09;7.63;;;2.63;;
7605;SDS011;3844;53.360;9.738;2023-06-10T04:41:09;11.25;;;2.78;;
7605;SDS011;3844;53.360;9.738;2023-06-10T04:43:10;10.43;;;2.60;;
7605;SDS011;3844;53.360;9.738;2023-06-10T04:45:11;8.60;;;2.50;;
7605;SDS011;3844;53.360;9.738;2023-06-10T04:47:12;8.45;;;2.45;;
7605;SDS011;3844;53.360;9.738;2023-06-10T04:49:13;8.15;;;2.40;;
7605;SDS011;3844;53.360;9.738;2023-06-10T04:51:16;11.60;;;2.70;;
7605;SDS011;3844;53.360;9.738;2023-06-10T04:53:17;8.60;;;2.40;;
7605;SDS011;3844;53.360;9.738;2023-06-10T04:55:18;10.13;;;2.33;;
7605;SDS011;3844;53.360;9.738;2023-06-10T04:57:19;8.95;;;2.60;;
7605;SDS011;3844;53.360;9.738;2023-06-10T04:59:20;9.40;;;2.92;;
7605;SDS011;3844;53.360;9.738;2023-06-10T05:01:21;8.40;;;2.70;;
7605;SDS011;3844;53.360;9.738;2023-06-10T05:03:21;10.90;;;2.83;;
7605;SDS011;3844;53.360;9.738;2023-06-10T05:05:22;10.35;;;2.80;;
7605;SDS011;3844;53.360;9.738;2023-06-10T05:07:23;13.05;;;2.97;;
7605;SDS011;3844;53.360;9.738;2023-06-10T05:09:24;8.32;;;2.70;;
7605;SDS011;3844;53.360;9.738;2023-06-10T05:11:25;9.15;;;2.60;;
7605;SDS011;3844;53.360;9.738;2023-06-10T05:13:26;10.70;;;2.72;;
7605;SDS011;3844;53.360;9.738;2023-06-10T05:15:27;10.35;;;2.90;;
7605;SDS011;3844;53.360;9.738;2023-06-10T05:17:28;9.50;;;2.88;;
7605;SDS011;3844;53.360;9.738;2023-06-10T05:19:28;11.60;;;2.80;;
7605;SDS011;3844;53.360;9.738;2023-06-10T05:21:29;8.95;;;2.70;;
7605;SDS011;3844;53.360;9.738;2023-06-10T05:23:30;9.77;;;2.90;;
7605;SDS011;3844;53.360;9.738;2023-06-10T05:25:31;10.60;;;2.72;;
7605;SDS011;3844;53.360;9.738;2023-06-10T05:27:32;10.10;;;2.60;;
7605;SDS011;3844;53.360;9.738;2023-06-10T05:29:33;9.82;;;2.95;;
7605;SDS011;3844;53.360;9.738;2023-06-10T05:31:34;9.40;;;2.72;;
7605;SDS011;3844;53.360;9.738;2023-06-10T05:33:35;12.73;;;3.20;;
7605;SDS011;3844;53.360;9.738;2023-06-10T05:35:35;8.63;;;2.50;;
7605;SDS011;3844;53.360;9.738;2023-06-10T05:37:36;9.07;;;2.90;;
7605;SDS011;3844;53.360;9.738;2023-06-10T05:39:37;10.30;;;3.00;;
7605;SDS011;3844;53.360;9.738;2023-06-10T05:41:37;9.70;;;2.75;;
7605;SDS011;3844;53.360;9.738;2023-06-10T05:43:38;10.40;;;3.03;;
7605;SDS011;3844;53.360;9.738;2023-06-10T05:45:39;10.60;;;2.65;;
7605;SDS011;3844;53.360;9.738;2023-06-10T05:47:40;10.02;;;2.60;;
7605;SDS011;3844;53.360;9.738;2023-06-10T05:49:41;9.13;;;2.60;;
7605;SDS011;3844;53.360;9.738;2023-06-10T05:51:41;9.43;;;2.60;;
7605;SDS011;3844;53.360;9.738;2023-06-10T05:53:42;9.45;;;2.60;;
7605;SDS011;3844;53.360;9.738;2023-06-10T05:55:43;9.07;;;2.70;;
7605;SDS011;3844;53.360;9.738;2023-06-10T05:57:45;8.98;;;2.75;;
7605;SDS011;3844;53.360;9.738;2023-06-10T05:59:46;7.82;;;2.65;;
7605;SDS011;3844;53.360;9.738;2023-06-10T06:01:46;9.02;;;2.53;;
7605;SDS011;3844;53.360;9.738;2023-06-10T06:03:47;7.53;;;2.40;;
7605;SDS011;3844;53.360;9.738;2023-06-10T06:05:48;10.07;;;2.83;;
7605;SDS011;3844;53.360;9.738;2023-06-10T06:07:48;10.68;;;2.83;;
7605;SDS011;3844;53.360;9.738;2023-06-10T06:09:49;8.77;;;2.58;;
7605;SDS011;3844;53.360;9.738;2023-06-10T06:11:50;10.02;;;2.70;;
7605;SDS011;3844;53.360;9.738;2023-06-10T06:13:50;7.70;;;2.20;;
7605;SDS011;3844;53.360;9.738;2023-06-10T06:15:51;8.32;;;2.58;;
7605;SDS011;3844;53.360;9.738;2023-06-10T06:17:52;10.05;;;2.80;;
7605;SDS011;3844;53.360;9.738;2023-06-10T06:19:53;7.53;;;2.55;;
7605;SDS011;3844;53.360;9.738;2023-06-10T06:21:54;9.18;;;2.47;;
7605;SDS011;3844;53.360;9.738;2023-06-10T06:23:55;9.75;;;2.60;;
7605;SDS011;3844;53.360;9.738;2023-06-10T06:25:56;9.98;;;2.70;;
7605;SDS011;3844;53.360;9.738;2023-06-10T06:27:56;7.65;;;2.70;;
7605;SDS011;3844;53.360;9.738;2023-06-10T06:29:57;8.32;;;2.38;;
7605;SDS011;3844;53.360;9.738;2023-06-10T06:31:58;10.88;;;2.75;;
7605;SDS011;3844;53.360;9.738;2023-06-10T06:33:58;9.13;;;2.60;;
7605;SDS011;3844;53.360;9.738;2023-06-10T06:35:59;10.25;;;2.70;;
7605;SDS011;3844;53.360;9.738;2023-06-10T06:40:04;8.95;;;2.40;;
7605;SDS011;3844;53.360;9.738;2023-06-10T06:42:05;9.05;;;2.50;;
7605;SDS011;3844;53.360;9.738;2023-06-10T06:44:06;11.65;;;2.67;;
7605;SDS011;3844;53.360;9.738;2023-06-10T06:46:07;6.43;;;1.98;;
7605;SDS011;3844;53.360;9.738;2023-06-10T06:48:08;7.32;;;2.10;;
7605;SDS011;3844;53.360;9.738;2023-06-10T06:50:09;8.80;;;2.42;;
7605;SDS011;3844;53.360;9.738;2023-06-10T06:52:10;6.93;;;2.10;;
7605;SDS011;3844;53.360;9.738;2023-06-10T06:54:10;6.57;;;2.22;;
7605;SDS011;3844;53.360;9.738;2023-06-10T06:56:12;7.22;;;2.08;;
7605;SDS011;3844;53.360;9.738;2023-06-10T06:58:12;8.30;;;2.30;;
7605;SDS011;3844;53.360;9.738;2023-06-10T07:00:13;8.02;;;2.10;;
7605;SDS011;3844;53.360;9.738;2023-06-10T07:02:14;6.03;;;2.03;;
7605;SDS011;3844;53.360;9.738;2023-06-10T07:04:15;9.32;;;2.47;;
7605;SDS011;3844;53.360;9.738;2023-06-10T07:06:16;8.00;;;2.30;;
7605;SDS011;3844;53.360;9.738;2023-06-10T07:08:17;7.70;;;2.22;;
7605;SDS011;3844;53.360;9.738;2023-06-10T07:10:17;8.75;;;2.22;;
7605;SDS011;3844;53.360;9.738;2023-06-10T07:12:18;7.90;;;2.17;;
7605;SDS011;3844;53.360;9.738;2023-06-10T07:14:19;8.25;;;2.17;;
7605;SDS011;3844;53.360;9.738;2023-06-10T07:16:20;7.05;;;2.15;;
7605;SDS011;3844;53.360;9.738;2023-06-10T07:18:21;6.07;;;2.10;;
7605;SDS011;3844;53.360;9.738;2023-06-10T07:20:22;6.88;;;2.05;;
7605;SDS011;3844;53.360;9.738;2023-06-10T07:22:23;6.50;;;1.98;;
7605;SDS011;3844;53.360;9.738;2023-06-10T07:24:23;6.90;;;2.08;;
7605;SDS011;3844;53.360;9.738;2023-06-10T07:26:24;5.20;;;1.80;;
7605;SDS011;3844;53.360;9.738;2023-06-10T07:28:25;8.00;;;2.05;;
7605;SDS011;3844;53.360;9.738;2023-06-10T07:30:27;6.07;;;2.00;;
7605;SDS011;3844;53.360;9.738;2023-06-10T07:32:28;8.23;;;2.20;;
7605;SDS011;3844;53.360;9.738;2023-06-10T07:34:29;7.80;;;2.10;;
7605;SDS011;3844;53.360;9.738;2023-06-10T07:36:30;6.85;;;2.00;;
7605;SDS011;3844;53.360;9.738;2023-06-10T07:38:31;8.05;;;2.00;;
7605;SDS011;3844;53.360;9.738;2023-06-10T07:40:32;8.20;;;2.20;;
7605;SDS011;3844;53.360;9.738;2023-06-10T07:42:34;5.80;;;1.75;;
7605;SDS011;3844;53.360;9.738;2023-06-10T07:44:36;8.27;;;2.05;;
7605;SDS011;3844;53.360;9.738;2023-06-10T07:46:37;6.10;;;1.90;;
7605;SDS011;3844;53.360;9.738;2023-06-10T07:48:38;6.93;;;2.00;;
7605;SDS011;3844;53.360;9.738;2023-06-10T07:50:38;6.22;;;1.95;;
7605;SDS011;3844;53.360;9.738;2023-06-10T07:52:40;7.68;;;2.00;;
7605;SDS011;3844;53.360;9.738;2023-06-10T07:54:41;7.93;;;2.13;;
7605;SDS011;3844;53.360;9.738;2023-06-10T07:56:41;7.20;;;2.05;;
7605;SDS011;3844;53.360;9.738;2023-06-10T07:58:42;6.22;;;1.90;;
7605;SDS011;3844;53.360;9.738;2023-06-10T08:00:43;6.85;;;2.10;;
7605;SDS011;3844;53.360;9.738;2023-06-10T08:02:43;8.00;;;2.20;;
7605;SDS011;3844;53.360;9.738;2023-06-10T08:04:44;7.63;;;2.10;;
7605;SDS011;3844;53.360;9.738;2023-06-10T08:06:45;8.05;;;1.95;;
7605;SDS011;3844;53.360;9.738;2023-06-10T08:08:45;5.78;;;1.77;;
7605;SDS011;3844;53.360;9.738;2023-06-10T08:10:46;6.93;;;2.00;;
7605;SDS011;3844;53.360;9.738;2023-06-10T08:12:48;7.28;;;2.00;;
7605;SDS011;3844;53.360;9.738;2023-06-10T08:14:48;5.53;;;1.75;;
7605;SDS011;3844;53.360;9.738;2023-06-10T08:16:49;6.88;;;2.10;;
7605;SDS011;3844;53.360;9.738;2023-06-10T08:18:50;6.05;;;2.03;;
7605;SDS011;3844;53.360;9.738;2023-06-10T08:20:51;9.13;;;2.17;;
7605;SDS011;3844;53.360;9.738;2023-06-10T08:22:51;7.85;;;2.00;;
7605;SDS011;3844;53.360;9.738;2023-06-10T08:24:52;9.75;;;2.45;;
7605;SDS011;3844;53.360;9.738;2023-06-10T08:26:53;5.88;;;2.00;;
7605;SDS011;3844;53.360;9.738;2023-06-10T08:28:56;7.05;;;1.92;;
7605;SDS011;3844;53.360;9.738;2023-06-10T08:30:56;7.45;;;2.25;;
7605;SDS011;3844;53.360;9.738;2023-06-10T08:32:57;7.10;;;2.17;;
7605;SDS011;3844;53.360;9.738;2023-06-10T08:34:58;5.32;;;2.10;;
7605;SDS011;3844;53.360;9.738;2023-06-10T08:36:58;5.82;;;1.90;;
7605;SDS011;3844;53.360;9.738;2023-06-10T08:38:59;5.25;;;1.80;;
7605;SDS011;3844;53.360;9.738;2023-06-10T08:41:00;6.30;;;1.90;;
7605;SDS011;3844;53.360;9.738;2023-06-10T08:43:08;7.45;;;2.20;;
7605;SDS011;3844;53.360;9.738;2023-06-10T08:45:17;6.18;;;2.28;;
7605;SDS011;3844;53.360;9.738;2023-06-10T08:47:18;7.28;;;2.00;;
7605;SDS011;3844;53.360;9.738;2023-06-10T08:49:22;6.78;;;2.17;;
7605;SDS011;3844;53.360;9.738;2023-06-10T08:51:26;7.55;;;2.20;;
7605;SDS011;3844;53.360;9.738;2023-06-10T08:53:27;5.85;;;2.00;;
7605;SDS011;3844;53.360;9.738;2023-06-10T08:55:38;6.40;;;2.10;;
7605;SDS011;3844;53.360;9.738;2023-06-10T08:57:46;6.53;;;2.00;;
7605;SDS011;3844;53.360;9.738;2023-06-10T08:59:48;7.35;;;2.20;;
7605;SDS011;3844;53.360;9.738;2023-06-10T09:01:49;6.50;;;2.28;;
7605;SDS011;3844;53.360;9.738;2023-06-10T09:03:50;8.55;;;2.35;;
7605;SDS011;3844;53.360;9.738;2023-06-10T09:05:52;6.30;;;2.17;;
7605;SDS011;3844;53.360;9.738;2023-06-10T09:07:53;6.97;;;2.22;;
7605;SDS011;3844;53.360;9.738;2023-06-10T09:09:55;8.15;;;2.33;;
7605;SDS011;3844;53.360;9.738;2023-06-10T09:11:57;5.57;;;2.25;;
7605;SDS011;3844;53.360;9.738;2023-06-10T09:13:58;6.07;;;2.17;;
7605;SDS011;3844;53.360;9.738;2023-06-10T09:15:59;7.68;;;2.20;;
7605;SDS011;3844;53.360;9.738;2023-06-10T09:18:01;7.88;;;2.10;;
7605;SDS011;3844;53.360;9.738;2023-06-10T09:20:02;5.68;;;2.30;;
7605;SDS011;3844;53.360;9.738;2023-06-10T09:22:03;5.43;;;2.10;;
7605;SDS011;3844;53.360;9.738;2023-06-10T09:24:05;7.50;;;2.42;;
7605;SDS011;3844;53.360;9.738;2023-06-10T09:26:08;7.70;;;2.20;;
7605;SDS011;3844;53.360;9.738;2023-06-10T09:28:14;4.85;;;2.00;;
7605;SDS011;3844;53.360;9.738;2023-06-10T09:30:31;7.43;;;2.20;;
7605;SDS011;3844;53.360;9.738;2023-06-10T09:32:37;5.22;;;2.10;;
7605;SDS011;3844;53.360;9.738;2023-06-10T09:34:38;5.80;;;2.25;;
7605;SDS011;3844;53.360;9.738;2023-06-10T09:36:40;5.57;;;2.17;;
7605;SDS011;3844;53.360;9.738;2023-06-10T09:38:41;7.60;;;2.33;;
7605;SDS011;3844;53.360;9.738;2023-06-10T09:40:49;5.57;;;2.25;;
7605;SDS011;3844;53.360;9.738;2023-06-10T09:42:54;6.25;;;2.20;;
7605;SDS011;3844;53.360;9.738;2023-06-10T09:44:57;6.70;;;2.00;;
7605;SDS011;3844;53.360;9.738;2023-06-10T09:46:57;6.57;;;2.17;;
7605;SDS011;3844;53.360;9.738;2023-06-10T09:48:59;6.03;;;2.30;;
7605;SDS011;3844;53.360;9.738;2023-06-10T09:51:00;5.28;;;2.20;;
7605;SDS011;3844;53.360;9.738;2023-06-10T09:53:00;7.70;;;2.10;;
7605;SDS011;3844;53.360;9.738;2023-06-10T09:55:07;6.63;;;2.33;;
7605;SDS011;3844;53.360;9.738;2023-06-10T09:57:10;7.50;;;2.08;;
7605;SDS011;3844;53.360;9.738;2023-06-10T09:59:11;6.03;;;2.13;;
7605;SDS011;3844;53.360;9.738;2023-06-10T10:01:12;5.25;;;2.00;;
7605;SDS011;3844;53.360;9.738;2023-06-10T10:03:21;6.20;;;2.20;;
7605;SDS011;3844;53.360;9.738;2023-06-10T10:05:23;7.15;;;2.20;;
7605;SDS011;3844;53.360;9.738;2023-06-10T10:07:24;8.52;;;2.22;;
7605;SDS011;3844;53.360;9.738;2023-06-10T10:09:24;5.05;;;1.90;;
7605;SDS011;3844;53.360;9.738;2023-06-10T10:11:25;5.13;;;1.90;;
7605;SDS011;3844;53.360;9.738;2023-06-10T10:13:27;7.03;;;2.25;;
7605;SDS011;3844;53.360;9.738;2023-06-10T10:15:28;5.03;;;2.20;;
7605;SDS011;3844;53.360;9.738;2023-06-10T10:17:32;6.20;;;2.00;;
7605;SDS011;3844;53.360;9.738;2023-06-10T10:19:33;7.23;;;2.30;;
7605;SDS011;3844;53.360;9.738;2023-06-10T10:21:43;5.97;;;2.25;;
7605;SDS011;3844;53.360;9.738;2023-06-10T10:26:04;7.00;;;2.20;;
7605;SDS011;3844;53.360;9.738;2023-06-10T10:28:10;7.40;;;2.35;;
7605;SDS011;3844;53.360;9.738;2023-06-10T10:30:12;6.75;;;2.22;;
7605;SDS011;3844;53.360;9.738;2023-06-10T10:32:14;5.45;;;2.10;;
7605;SDS011;3844;53.360;9.738;2023-06-10T10:34:17;6.40;;;2.28;;
7605;SDS011;3844;53.360;9.738;2023-06-10T10:36:21;5.18;;;2.08;;
7605;SDS011;3844;53.360;9.738;2023-06-10T10:38:23;6.90;;;2.30;;
7605;SDS011;3844;53.360;9.738;2023-06-10T10:40:25;6.38;;;2.20;;
7605;SDS011;3844;53.360;9.738;2023-06-10T10:42:29;8.48;;;2.63;;
7605;SDS011;3844;53.360;9.738;2023-06-10T10:44:31;5.63;;;2.10;;
7605;SDS011;3844;53.360;9.738;2023-06-10T10:46:41;6.13;;;2.10;;
7605;SDS011;3844;53.360;9.738;2023-06-10T10:48:43;8.50;;;2.30;;
7605;SDS011;3844;53.360;9.738;2023-06-10T10:50:48;5.40;;;2.30;;
7605;SDS011;3844;53.360;9.738;2023-06-10T10:53:04;6.63;;;2.30;;
7605;SDS011;3844;53.360;9.738;2023-06-10T10:55:05;6.28;;;2.25;;
7605;SDS011;3844;53.360;9.738;2023-06-10T10:59:15;9.20;;;2.78;;
7605;SDS011;3844;53.360;9.738;2023-06-10T11:01:19;6.18;;;2.10;;
7605;SDS011;3844;53.360;9.738;2023-06-10T11:03:20;6.10;;;2.13;;
7605;SDS011;3844;53.360;9.738;2023-06-10T11:05:32;6.28;;;2.28;;
7605;SDS011;3844;53.360;9.738;2023-06-10T11:07:35;4.90;;;2.03;;
7605;SDS011;3844;53.360;9.738;2023-06-10T11:09:36;8.60;;;2.47;;
7605;SDS011;3844;53.360;9.738;2023-06-10T11:11:37;7.13;;;2.40;;
7605;SDS011;3844;53.360;9.738;2023-06-10T11:16:04;6.93;;;2.78;;
7605;SDS011;3844;53.360;9.738;2023-06-10T11:18:10;6.90;;;2.50;;
7605;SDS011;3844;53.360;9.738;2023-06-10T11:20:42;8.60;;;2.72;;
7605;SDS011;3844;53.360;9.738;2023-06-10T11:22:58;6.20;;;2.40;;
7605;SDS011;3844;53.360;9.738;2023-06-10T11:24:58;7.78;;;2.60;;
7605;SDS011;3844;53.360;9.738;2023-06-10T11:27:18;5.40;;;2.30;;
7605;SDS011;3844;53.360;9.738;2023-06-10T11:29:24;6.13;;;2.47;;
7605;SDS011;3844;53.360;9.738;2023-06-10T11:33:26;5.45;;;2.20;;
7605;SDS011;3844;53.360;9.738;2023-06-10T11:35:28;6.25;;;2.50;;
7605;SDS011;3844;53.360;9.738;2023-06-10T11:37:30;7.95;;;2.60;;
7605;SDS011;3844;53.360;9.738;2023-06-10T11:39:31;6.65;;;2.22;;
7605;SDS011;3844;53.360;9.738;2023-06-10T11:41:34;5.90;;;2.53;;
7605;SDS011;3844;53.360;9.738;2023-06-10T11:43:43;5.00;;;2.20;;
7605;SDS011;3844;53.360;9.738;2023-06-10T11:45:45;10.52;;;2.80;;
7605;SDS011;3844;53.360;9.738;2023-06-10T11:47:55;6.20;;;2.60;;
7605;SDS011;3844;53.360;9.738;2023-06-10T11:49:57;5.90;;;2.35;;
7605;SDS011;3844;53.360;9.738;2023-06-10T11:51:58;7.75;;;2.53;;
7605;SDS011;3844;53.360;9.738;2023-06-10T11:53:59;6.93;;;2.53;;
7605;SDS011;3844;53.360;9.738;2023-06-10T11:56:01;6.60;;;2.77;;
7605;SDS011;3844;53.360;9.738;2023-06-10T11:58:01;7.03;;;2.42;;
7605;SDS011;3844;53.360;9.738;2023-06-10T12:00:05;7.97;;;2.45;;
7605;SDS011;3844;53.360;9.738;2023-06-10T12:02:14;7.03;;;2.70;;
7605;SDS011;3844;53.360;9.738;2023-06-10T12:04:16;7.35;;;2.80;;
7605;SDS011;3844;53.360;9.738;2023-06-10T12:08:18;6.75;;;2.75;;
7605;SDS011;3844;53.360;9.738;2023-06-10T12:10:19;7.95;;;3.03;;
7605;SDS011;3844;53.360;9.738;2023-06-10T12:12:20;6.05;;;2.63;;
7605;SDS011;3844;53.360;9.738;2023-06-10T12:16:51;5.75;;;2.97;;
7605;SDS011;3844;53.360;9.738;2023-06-10T12:19:00;6.43;;;3.05;;
7605;SDS011;3844;53.360;9.738;2023-06-10T12:21:02;7.80;;;2.90;;
7605;SDS011;3844;53.360;9.738;2023-06-10T12:23:09;8.07;;;3.20;;
7605;SDS011;3844;53.360;9.738;2023-06-10T12:25:11;6.55;;;2.90;;
7605;SDS011;3844;53.360;9.738;2023-06-10T12:27:12;7.45;;;3.25;;
7605;SDS011;3844;53.360;9.738;2023-06-10T12:29:23;7.93;;;2.70;;
7605;SDS011;3844;53.360;9.738;2023-06-10T12:31:24;8.05;;;3.30;;
7605;SDS011;3844;53.360;9.738;2023-06-10T12:33:25;6.00;;;3.20;;
7605;SDS011;3844;53.360;9.738;2023-06-10T12:35:26;5.78;;;2.90;;
7605;SDS011;3844;53.360;9.738;2023-06-10T12:37:28;8.55;;;3.10;;
7605;SDS011;3844;53.360;9.738;2023-06-10T12:39:29;6.55;;;3.03;;
7605;SDS011;3844;53.360;9.738;2023-06-10T12:41:36;7.95;;;3.30;;
7605;SDS011;3844;53.360;9.738;2023-06-10T12:43:37;9.65;;;3.47;;
7605;SDS011;3844;53.360;9.738;2023-06-10T12:45:40;7.97;;;3.40;;
7605;SDS011;3844;53.360;9.738;2023-06-10T12:47:44;9.48;;;3.00;;
7605;SDS011;3844;53.360;9.738;2023-06-10T12:49:45;6.05;;;3.05;;
7605;SDS011;3844;53.360;9.738;2023-06-10T12:51:46;9.18;;;3.55;;
7605;SDS011;3844;53.360;9.738;2023-06-10T12:53:47;8.25;;;3.30;;
7605;SDS011;3844;53.360;9.738;2023-06-10T12:55:49;7.68;;;3.20;;